Henderson, Nevada
Current Conditions -  °F | °C
As of 11:35 AM on Sunday 23 Nov 2014 (Local Time) from KBVU Reporting Station
Clear Clear  
Wind Chill: 61°   Ceiling: Unl
Heat Index: 61°   Visibility: 10mi
Dew Point: 12°   Wind: 13mph
Humidity: 15%   Direction: 360°N
Pressure: 30.26"   Gusts: 25mph
Location:  36.03°N, 114.98°W
Report Text: KBVU 231935Z AUTO 36011G22KT 10SM CLR 16/M11 A3026 RMK AO2
Loading
Personal Weather Stations






























Interactive Weather Map New forecast layout! Learn more

10-Day Weather Forecast

Advertisements
Track Severe Weather on mobile